createdAt,value
2023-04-16T00:00:17.023Z,43747.19
2023-04-16T00:02:44.410Z,43419.78
2023-04-16T00:05:11.679Z,43499.63
2023-04-16T00:07:43.844Z,43709.25
2023-04-16T00:10:11.096Z,43853.00
2023-04-16T00:12:41.279Z,43627.41
2023-04-16T00:15:08.821Z,43148.28
2023-04-16T00:17:37.214Z,43012.53
2023-04-16T00:20:08.857Z,42996.56
2023-04-16T00:22:36.040Z,43341.91
2023-04-16T00:25:03.939Z,43375.84
2023-04-16T00:27:31.098Z,43286.00
2023-04-16T00:29:58.471Z,43475.66
2023-04-16T00:32:25.824Z,43317.97
2023-04-16T00:34:55.557Z,43329.94
2023-04-16T00:37:25.402Z,43513.59
2023-04-16T00:39:52.770Z,43541.56
2023-04-16T00:42:20.129Z,43421.75
2023-04-16T00:44:52.241Z,43399.81
2023-04-16T00:47:22.996Z,44278.31
2023-04-16T00:49:50.584Z,44252.34
2023-04-16T00:52:20.299Z,44162.50
2023-04-16T00:54:47.872Z,43799.09
2023-04-16T00:57:17.508Z,44020.72
2023-04-16T00:59:45.144Z,43994.78
2023-04-16T01:02:14.838Z,43974.81
2023-04-16T01:04:42.515Z,43847.03
2023-04-16T01:07:12.284Z,43857.00
2023-04-16T01:09:41.945Z,43641.38
2023-04-16T01:12:10.938Z,43827.06
2023-04-16T01:14:38.298Z,43731.22
2023-04-16T01:17:08.641Z,43343.91
2023-04-16T01:19:38.518Z,43471.69
2023-04-16T01:22:06.090Z,43573.50
2023-04-16T01:24:34.967Z,43303.97
2023-04-16T01:27:04.494Z,43274.03
2023-04-16T01:29:31.693Z,43160.25
2023-04-16T01:32:02.151Z,42816.91
2023-04-16T01:34:34.530Z,42523.53
2023-04-16T01:37:04.129Z,42419.75
2023-04-16T01:39:35.697Z,42290.00
2023-04-16T01:42:03.999Z,42264.06
2023-04-16T01:44:31.201Z,42507.56
2023-04-16T01:46:58.587Z,42252.09
2023-04-16T01:49:33.942Z,42092.44
2023-04-16T01:52:01.107Z,42034.56
2023-04-16T01:54:30.900Z,42150.31
2023-04-16T01:56:58.584Z,42000.66
2023-04-16T01:59:28.085Z,41964.72
2023-04-16T02:01:56.266Z,42152.31
2023-04-16T02:04:23.447Z,42120.38
2023-04-16T02:06:50.843Z,42144.34
2023-04-16T02:09:18.152Z,42266.06
2023-04-16T02:11:45.506Z,42142.34
2023-04-16T02:14:15.208Z,41823.06
2023-04-16T02:16:43.182Z,41507.78
2023-04-16T02:19:33.453Z,41553.69
2023-04-16T02:22:06.741Z,41601.56
2023-04-16T02:24:34.118Z,41322.25
2023-04-16T02:27:05.591Z,41210.50
2023-04-16T02:29:33.512Z,41354.16
2023-04-16T02:32:13.382Z,41400.06
2023-04-16T02:34:43.814Z,41477.88
2023-04-16T02:37:15.403Z,41404.03
2023-04-16T02:39:45.076Z,41294.31
2023-04-16T02:42:14.376Z,41398.06
2023-04-16T02:44:42.211Z,41096.78
2023-04-16T02:47:09.614Z,40947.19
2023-04-16T02:49:36.792Z,40955.16
2023-04-16T02:52:09.087Z,40903.28
2023-04-16T02:54:36.368Z,40811.53
2023-04-16T02:57:03.791Z,40691.84
2023-04-16T02:59:30.944Z,40653.94
2023-04-16T03:01:59.082Z,40584.13
2023-04-16T03:04:28.678Z,40624.03
2023-04-16T03:06:56.180Z,40628.00
2023-04-16T03:09:23.367Z,40462.44
2023-04-16T03:11:52.980Z,40524.28
2023-04-16T03:14:23.046Z,40504.34
2023-04-16T03:16:52.921Z,40524.28
2023-04-16T03:19:20.383Z,40476.41
2023-04-16T03:21:47.790Z,40450.47
2023-04-16T03:24:18.749Z,40436.53
2023-04-16T03:26:49.213Z,40512.31
2023-04-16T03:29:17.786Z,40665.91
2023-04-16T03:31:45.153Z,40606.06
2023-04-16T03:34:12.519Z,40522.28
2023-04-16T03:36:42.724Z,40520.28
2023-04-16T03:39:10.114Z,40416.56
2023-04-16T03:41:37.779Z,40398.63
2023-04-16T03:44:05.411Z,40215.13
2023-04-16T03:46:33.913Z,40173.25
2023-04-16T03:49:03.385Z,39987.75
2023-04-16T03:51:30.948Z,40059.56
2023-04-16T03:53:58.354Z,40087.47
2023-04-16T03:56:26.720Z,40011.69
2023-04-16T03:58:57.284Z,39929.94
2023-04-16T04:01:24.452Z,40071.53
2023-04-16T04:03:53.005Z,40019.69
2023-04-16T04:06:21.294Z,39919.97
2023-04-16T04:08:48.785Z,39929.94
2023-04-16T04:11:16.710Z,40035.63
2023-04-16T04:13:44.279Z,39963.84
2023-04-16T04:16:11.743Z,39874.09
2023-04-16T04:18:43.949Z,39850.16
2023-04-16T04:21:12.853Z,39838.19
2023-04-16T04:23:41.731Z,39812.28
2023-04-16T04:26:09.647Z,39766.41
2023-04-16T04:28:39.242Z,39804.28
2023-04-16T04:31:06.471Z,39808.28
2023-04-16T04:33:33.792Z,39898.03
2023-04-16T04:36:01.600Z,39878.06
2023-04-16T04:38:33.153Z,39764.41
2023-04-16T04:41:00.776Z,39782.34
2023-04-16T04:43:32.256Z,39714.56
2023-04-16T04:46:00.976Z,39584.94
2023-04-16T04:48:29.809Z,39483.25
2023-04-16T04:50:57.387Z,39331.69
2023-04-16T04:53:24.934Z,39303.78
2023-04-16T04:55:54.188Z,39251.94
2023-04-16T04:58:24.933Z,38785.41
2023-04-16T05:00:52.624Z,38677.75
2023-04-16T05:03:21.792Z,38767.47
2023-04-16T05:05:49.401Z,38873.13
2023-04-16T05:08:16.806Z,39044.56
2023-04-16T05:10:47.152Z,39148.25
2023-04-16T05:13:14.516Z,39050.56
2023-04-16T05:15:45.643Z,38980.78
2023-04-16T05:18:12.908Z,38913.00
2023-04-16T05:20:40.462Z,38837.22
2023-04-16T05:23:07.822Z,38835.25
2023-04-16T05:25:35.582Z,38795.38
2023-04-16T05:28:05.489Z,38747.53
2023-04-16T05:30:35.060Z,38741.53
2023-04-16T05:33:02.296Z,38713.63
2023-04-16T05:35:31.786Z,38743.53
2023-04-16T05:37:59.006Z,38735.56
2023-04-16T05:40:27.013Z,38713.63
2023-04-16T05:42:54.167Z,38725.59
2023-04-16T05:45:25.609Z,38693.69
2023-04-16T05:47:54.715Z,38715.63
2023-04-16T05:50:24.228Z,38709.63
2023-04-16T05:52:51.594Z,38683.72
2023-04-16T05:55:21.346Z,38715.63
2023-04-16T05:57:48.805Z,38715.63
2023-04-16T06:00:16.506Z,38723.59
2023-04-16T06:02:46.100Z,38741.53
2023-04-16T06:05:16.514Z,38727.59
2023-04-16T06:07:46.052Z,38705.66
2023-04-16T06:10:15.552Z,38703.66
2023-04-16T06:12:42.786Z,38685.72
2023-04-16T06:15:11.030Z,38677.75
2023-04-16T06:17:38.443Z,38687.72
2023-04-16T06:20:06.631Z,38673.75
2023-04-16T06:22:34.093Z,38707.66
2023-04-16T06:25:01.341Z,38683.72
2023-04-16T06:27:31.458Z,38683.72
2023-04-16T06:29:58.657Z,38693.69
2023-04-16T06:32:28.568Z,38713.63
2023-04-16T06:34:58.802Z,38687.72
2023-04-16T06:37:26.099Z,38717.63
2023-04-16T06:39:53.248Z,38665.78
2023-04-16T06:42:23.011Z,38641.84
2023-04-16T06:44:50.354Z,38635.88
2023-04-16T06:47:20.329Z,38623.91
2023-04-16T06:49:47.640Z,38594.00
2023-04-16T06:52:14.955Z,38536.19
2023-04-16T06:54:42.174Z,38546.16
2023-04-16T06:57:09.575Z,38522.25
2023-04-16T06:59:36.832Z,38538.19
2023-04-16T07:02:04.165Z,38504.31
2023-04-16T07:04:35.833Z,38526.25
2023-04-16T07:07:02.978Z,38544.19
2023-04-16T07:09:30.554Z,38506.31
2023-04-16T07:11:57.786Z,38466.44
2023-04-16T07:14:25.328Z,38490.34
2023-04-16T07:16:52.825Z,38476.41
2023-04-16T07:19:20.372Z,38406.63
2023-04-16T07:21:47.724Z,38418.59
2023-04-16T07:24:14.940Z,38418.59
2023-04-16T07:26:42.250Z,38356.78
2023-04-16T07:29:09.937Z,38394.66
2023-04-16T07:31:37.423Z,38378.72
2023-04-16T07:34:04.820Z,38418.59
2023-04-16T07:36:32.207Z,38420.59
2023-04-16T07:38:59.484Z,38434.53
2023-04-16T07:41:27.794Z,38386.69
2023-04-16T07:43:55.456Z,38416.59
2023-04-16T07:46:24.736Z,38402.66
2023-04-16T07:48:52.675Z,38410.63
2023-04-16T07:51:22.308Z,38390.69
2023-04-16T07:53:49.457Z,38400.66
2023-04-16T07:56:19.078Z,38402.66
2023-04-16T07:58:46.622Z,38392.69
2023-04-16T08:01:16.619Z,38382.72
2023-04-16T08:03:46.800Z,38388.69
2023-04-16T08:06:16.950Z,38406.63
2023-04-16T08:08:47.675Z,38400.66
2023-04-16T08:11:17.498Z,38402.66
2023-04-16T08:13:44.895Z,38382.72
2023-04-16T08:16:16.424Z,38418.59
2023-04-16T08:18:44.066Z,38434.53
2023-04-16T08:21:13.614Z,38434.53
2023-04-16T08:23:40.951Z,38394.66
2023-04-16T08:26:11.518Z,38442.50
2023-04-16T08:28:43.531Z,38408.63
2023-04-16T08:31:15.206Z,38444.50
2023-04-16T08:33:45.303Z,38430.56
2023-04-16T08:36:12.493Z,38426.56
2023-04-16T08:38:39.917Z,38454.47
2023-04-16T08:41:12.036Z,38476.41
2023-04-16T08:43:45.425Z,38486.38
2023-04-16T08:46:13.090Z,38482.38
2023-04-16T08:48:42.797Z,38510.28
2023-04-16T08:51:14.306Z,38522.25
2023-04-16T08:54:00.001Z,38520.25
2023-04-16T08:56:27.647Z,38524.25
2023-04-16T08:58:58.485Z,38532.22
2023-04-16T09:01:29.149Z,38572.09
2023-04-16T09:03:57.304Z,38623.91
2023-04-16T09:06:27.696Z,38635.88
2023-04-16T09:08:58.181Z,38637.88
2023-04-16T09:11:25.810Z,38603.97
2023-04-16T09:13:56.011Z,38602.00
2023-04-16T09:16:25.001Z,38602.00
2023-04-16T09:18:52.467Z,38619.94
2023-04-16T09:21:21.050Z,38645.84
2023-04-16T09:23:54.594Z,38663.78
2023-04-16T09:26:22.699Z,38725.59
2023-04-16T09:28:51.374Z,38735.56
2023-04-16T09:31:22.586Z,38767.47
2023-04-16T09:34:16.841Z,38773.44
2023-04-16T09:36:44.474Z,38787.38
2023-04-16T09:39:19.996Z,38803.34
2023-04-16T09:41:48.013Z,38823.28
2023-04-16T09:44:15.586Z,39064.50
2023-04-16T09:46:43.153Z,39168.19
2023-04-16T09:49:16.223Z,39523.13
2023-04-16T09:51:48.700Z,40143.31
2023-04-16T09:54:16.851Z,40731.72
2023-04-16T09:56:48.011Z,41210.50
2023-04-16T09:59:22.934Z,41312.25
2023-04-16T10:01:50.669Z,41643.47
2023-04-16T10:04:22.261Z,41711.31
2023-04-16T10:07:06.776Z,41996.66
2023-04-16T10:09:38.453Z,41521.75
2023-04-16T10:12:06.825Z,39531.09
2023-04-16T10:14:34.801Z,38986.75
2023-04-16T10:17:04.827Z,38807.31
2023-04-16T10:19:35.768Z,38605.97
2023-04-16T10:22:03.796Z,38572.09
2023-04-16T10:24:33.930Z,38645.84
2023-04-16T10:27:02.312Z,38749.50
2023-04-16T10:29:33.250Z,38829.25
2023-04-16T10:32:02.528Z,38857.16
2023-04-16T10:34:31.330Z,38916.97
2023-04-16T10:36:58.746Z,38861.16
2023-04-16T10:39:28.383Z,38813.31
2023-04-16T10:42:12.521Z,38817.28
2023-04-16T10:44:44.289Z,38783.41
2023-04-16T10:47:14.220Z,38801.34
2023-04-16T10:49:43.890Z,38781.41
2023-04-16T10:52:14.804Z,38753.50
2023-04-16T10:54:42.061Z,38769.44
2023-04-16T10:57:19.619Z,38773.44
2023-04-16T10:59:51.265Z,38793.38
2023-04-16T11:02:19.574Z,38789.38
2023-04-16T11:04:50.129Z,38817.28
2023-04-16T11:07:19.734Z,38831.25
2023-04-16T11:09:52.800Z,38819.28
2023-04-16T11:12:27.802Z,38897.03
2023-04-16T11:14:58.750Z,38873.13
2023-04-16T11:17:30.725Z,38922.97
2023-04-16T11:19:58.294Z,38952.88
2023-04-16T11:22:27.199Z,38994.72
2023-04-16T11:24:57.784Z,39224.03
2023-04-16T11:27:25.502Z,39026.63
2023-04-16T11:30:05.941Z,38978.78
2023-04-16T11:32:37.127Z,39006.69
2023-04-16T11:35:16.198Z,38970.81
2023-04-16T11:37:48.453Z,39024.63
2023-04-16T11:40:19.118Z,39060.53
2023-04-16T11:42:51.125Z,38990.75
2023-04-16T11:45:19.483Z,39016.66
2023-04-16T11:47:52.487Z,38992.75
2023-04-16T11:50:24.706Z,38962.84
2023-04-16T11:52:56.952Z,39182.16
2023-04-16T11:55:24.896Z,39451.34
2023-04-16T11:57:52.892Z,39323.72
2023-04-16T12:00:35.904Z,39259.91
2023-04-16T12:03:03.419Z,39204.09
2023-04-16T12:05:40.229Z,39216.03
2023-04-16T12:08:09.972Z,39164.22
2023-04-16T12:10:55.349Z,39048.56
2023-04-16T12:13:22.960Z,39112.38
2023-04-16T12:19:04.695Z,39036.59
2023-04-16T12:21:47.044Z,39048.56
2023-04-16T12:24:17.525Z,39068.50
2023-04-16T12:26:47.453Z,39371.56
2023-04-16T12:29:14.871Z,39291.81
2023-04-16T12:31:42.321Z,39192.13
2023-04-16T12:34:11.331Z,38972.81
2023-04-16T12:36:38.580Z,39052.56
2023-04-16T12:39:11.047Z,39146.25
2023-04-16T12:41:40.740Z,39419.44
2023-04-16T12:44:20.014Z,39375.56
2023-04-16T12:46:49.484Z,39323.72
2023-04-16T12:49:16.964Z,39333.69
2023-04-16T12:51:44.353Z,39255.94
2023-04-16T12:54:11.755Z,39341.66
2023-04-16T12:56:39.292Z,39738.47
2023-04-16T12:59:06.515Z,39792.31
2023-04-16T13:01:38.895Z,39329.69
2023-04-16T13:04:07.907Z,39096.41
2023-04-16T13:06:36.889Z,38932.94
2023-04-16T13:09:09.521Z,38749.50
2023-04-16T13:11:36.931Z,38625.91
2023-04-16T13:14:08.665Z,38572.09
2023-04-16T13:16:36.289Z,38554.16
2023-04-16T13:19:04.017Z,38506.31
2023-04-16T13:21:31.616Z,38542.19
2023-04-16T13:23:59.600Z,38510.28
2023-04-16T13:26:27.133Z,38661.78
2023-04-16T13:28:54.616Z,38633.88
2023-04-16T13:31:22.285Z,38596.00
2023-04-16T13:33:50.222Z,38574.06
2023-04-16T13:36:18.709Z,38524.25
2023-04-16T13:38:48.680Z,38556.13
2023-04-16T13:41:15.853Z,38538.19
2023-04-16T13:43:45.759Z,38518.25
2023-04-16T13:46:13.461Z,38530.22
2023-04-16T13:48:42.535Z,38518.25
2023-04-16T13:51:13.795Z,38488.38
2023-04-16T13:53:41.616Z,38494.34
2023-04-16T13:56:10.488Z,38448.50
2023-04-16T13:58:39.245Z,38480.38
2023-04-16T14:01:06.573Z,38466.44
2023-04-16T14:03:39.043Z,38500.31
2023-04-16T14:06:06.709Z,38494.34
2023-04-16T14:08:33.926Z,38498.31
2023-04-16T14:11:05.497Z,38478.41
2023-04-16T14:13:35.239Z,38490.34
2023-04-16T14:16:05.696Z,38504.31
2023-04-16T14:18:35.832Z,38496.34
2023-04-16T14:21:03.556Z,38486.38
2023-04-16T14:23:31.777Z,38498.31
2023-04-16T14:26:01.168Z,38526.25
2023-04-16T14:28:29.984Z,38518.25
2023-04-16T14:30:59.460Z,38562.13
2023-04-16T14:33:27.335Z,38540.19
2023-04-16T14:35:57.018Z,38560.13
2023-04-16T14:38:24.474Z,38560.13
2023-04-16T14:40:52.933Z,38584.03
2023-04-16T14:43:20.245Z,38586.03
2023-04-16T14:45:47.888Z,38590.03
2023-04-16T14:48:17.361Z,38594.00
2023-04-16T14:50:47.707Z,38584.03
2023-04-16T14:53:14.912Z,38552.16
2023-04-16T14:55:46.950Z,38602.00
2023-04-16T14:58:14.444Z,38605.97
2023-04-16T15:00:42.700Z,38598.00
2023-04-16T15:03:11.196Z,38611.97
2023-04-16T15:05:39.094Z,38615.94
2023-04-16T15:08:09.049Z,38600.00
2023-04-16T15:10:37.623Z,38617.94
2023-04-16T15:13:07.289Z,38570.09
2023-04-16T15:15:37.735Z,38592.03
2023-04-16T15:18:05.346Z,38562.13
2023-04-16T15:20:34.922Z,38518.25
2023-04-16T15:23:07.758Z,38482.38
2023-04-16T15:25:37.502Z,38458.47
2023-04-16T15:28:07.837Z,38398.66
2023-04-16T15:30:40.353Z,38360.78
2023-04-16T15:33:11.900Z,38306.97
2023-04-16T15:35:43.994Z,38334.88
2023-04-16T15:38:11.185Z,38289.03
2023-04-16T15:40:39.279Z,38263.09
2023-04-16T15:43:07.739Z,38259.13
2023-04-16T15:45:37.645Z,38195.34
2023-04-16T15:48:05.983Z,38203.31
2023-04-16T15:51:02.664Z,38219.25
2023-04-16T15:53:31.268Z,38201.31
2023-04-16T15:56:00.845Z,38233.22
2023-04-16T15:58:28.278Z,38239.19
2023-04-16T16:00:55.470Z,38223.25
2023-04-16T16:03:23.113Z,38207.28
2023-04-16T16:05:51.578Z,38187.38
2023-04-16T16:08:19.406Z,38147.50
2023-04-16T16:10:47.133Z,38187.38
2023-04-16T16:13:17.967Z,38181.38
2023-04-16T16:15:45.528Z,38223.25
2023-04-16T16:18:12.893Z,38221.25
2023-04-16T16:20:40.570Z,38259.13
2023-04-16T16:23:08.313Z,38251.16
2023-04-16T16:25:35.588Z,38312.94
2023-04-16T16:28:06.921Z,38320.91
2023-04-16T16:30:34.229Z,38398.66
2023-04-16T16:33:02.315Z,38362.78
2023-04-16T16:35:30.122Z,38454.47
2023-04-16T16:37:58.563Z,38510.28
2023-04-16T16:40:26.310Z,38538.19
2023-04-16T16:42:55.770Z,38540.19
2023-04-16T16:45:29.314Z,38552.16
2023-04-16T16:47:58.819Z,38685.72
2023-04-16T16:50:28.425Z,38713.63
2023-04-16T16:52:58.940Z,38795.38
2023-04-16T16:55:26.630Z,38805.34
2023-04-16T16:57:55.018Z,38831.25
2023-04-16T17:00:23.036Z,38775.44
2023-04-16T17:02:51.907Z,38785.41
2023-04-16T17:05:21.781Z,38791.38
2023-04-16T17:07:48.980Z,38855.19
2023-04-16T17:10:21.373Z,38958.84
2023-04-16T17:12:52.171Z,38958.84
2023-04-16T17:15:23.029Z,38855.19
2023-04-16T17:17:50.849Z,38899.03
2023-04-16T17:20:18.696Z,38952.88
2023-04-16T17:22:48.980Z,38966.81
2023-04-16T17:25:16.968Z,38940.91
2023-04-16T17:27:46.800Z,39092.44
2023-04-16T17:30:14.551Z,39198.09
2023-04-16T17:32:41.964Z,39269.88
2023-04-16T17:35:13.685Z,39341.66
2023-04-16T17:37:41.165Z,39395.50
2023-04-16T17:40:09.860Z,39355.63
2023-04-16T17:42:37.614Z,39351.63
2023-04-16T17:45:07.832Z,39307.75
2023-04-16T17:47:36.287Z,39387.53
2023-04-16T17:50:04.302Z,39405.47
2023-04-16T17:52:32.309Z,39405.47
2023-04-16T17:55:11.013Z,39439.38
2023-04-16T17:57:39.543Z,39367.59
2023-04-16T18:00:11.561Z,39243.97
2023-04-16T18:02:40.913Z,39174.19
2023-04-16T18:05:09.527Z,39198.09
2023-04-16T18:07:37.530Z,39194.13
2023-04-16T18:10:05.682Z,39152.25
2023-04-16T18:12:33.645Z,39122.34
2023-04-16T18:15:00.755Z,39100.41
2023-04-16T18:17:28.330Z,38974.78
2023-04-16T18:19:56.535Z,39054.53
2023-04-16T18:22:27.373Z,39074.47
2023-04-16T18:25:00.350Z,38793.38
2023-04-16T18:27:32.070Z,38803.34
2023-04-16T18:29:59.705Z,38819.28
2023-04-16T18:32:30.871Z,39040.59
2023-04-16T18:34:58.790Z,39265.91
2023-04-16T18:37:26.459Z,39505.16
2023-04-16T18:39:57.890Z,39814.25
2023-04-16T18:42:28.098Z,40195.19
2023-04-16T18:44:59.413Z,40604.06
2023-04-16T18:47:31.071Z,40701.81
2023-04-16T18:49:58.524Z,41040.94
2023-04-16T18:52:28.241Z,41497.81
2023-04-16T18:54:57.957Z,41839.00
2023-04-16T18:57:25.136Z,42407.75
2023-04-16T18:59:54.323Z,42968.63
2023-04-16T19:02:24.202Z,43307.97
2023-04-16T19:04:51.745Z,44160.50
2023-04-16T19:07:19.197Z,45179.03
2023-04-16T19:09:46.499Z,46431.66
2023-04-16T19:12:16.404Z,46991.19
2023-04-16T19:14:44.105Z,48216.47
2023-04-16T19:17:13.627Z,49018.25
2023-04-16T19:19:41.207Z,50764.44
2023-04-16T19:22:08.460Z,51284.66
2023-04-16T19:24:35.893Z,51468.75
2023-04-16T19:27:06.539Z,52785.75
2023-04-16T19:29:35.030Z,54163.38
2023-04-16T19:32:04.929Z,54852.38
2023-04-16T19:34:32.447Z,55621.66
2023-04-16T19:37:02.084Z,55878.13
2023-04-16T19:39:29.445Z,56391.13
2023-04-16T19:41:56.791Z,56134.63
2023-04-16T19:44:27.644Z,55878.13
2023-04-16T19:46:55.352Z,56134.63
2023-04-16T19:49:25.202Z,56647.66
2023-04-16T19:51:53.069Z,56391.13
2023-04-16T19:54:23.258Z,56134.63
2023-04-16T19:56:55.618Z,56134.63
2023-04-16T19:59:23.000Z,56134.63
2023-04-16T20:01:50.677Z,56134.63
2023-04-16T20:04:18.532Z,55621.66
2023-04-16T20:06:46.468Z,54786.28
2023-04-16T20:09:18.481Z,54339.59
2023-04-16T20:11:46.900Z,54595.97
2023-04-16T20:14:14.387Z,55108.78
2023-04-16T20:16:43.611Z,54339.59
2023-04-16T20:19:17.170Z,53466.47
2023-04-16T20:21:45.573Z,52735.72
2023-04-16T20:24:12.998Z,52769.75
2023-04-16T20:26:41.559Z,52317.34
2023-04-16T20:29:10.188Z,51845.00
2023-04-16T20:31:37.926Z,51746.94
2023-04-16T20:34:05.257Z,51726.91
2023-04-16T20:36:35.005Z,50944.50
2023-04-16T20:39:02.316Z,50972.50
2023-04-16T20:41:31.673Z,50528.34
2023-04-16T20:44:05.179Z,50380.31
2023-04-16T20:46:36.185Z,50156.25
2023-04-16T20:49:07.567Z,49800.22
2023-04-16T20:51:35.511Z,49740.22
2023-04-16T20:54:04.280Z,49384.22
2023-04-16T20:56:31.558Z,49728.22
2023-04-16T20:58:59.379Z,50200.28
2023-04-16T21:01:26.789Z,50320.28
2023-04-16T21:03:57.150Z,50744.41
2023-04-16T21:06:24.997Z,50502.34
2023-04-16T21:08:52.323Z,50190.28
2023-04-16T21:11:24.473Z,50188.28
2023-04-16T21:13:51.655Z,51476.75
2023-04-16T21:16:19.029Z,52175.22
2023-04-16T21:18:46.294Z,52125.19
2023-04-16T21:21:13.460Z,52177.22
2023-04-16T21:23:42.958Z,52105.19
2023-04-16T21:26:13.190Z,51788.94
2023-04-16T21:28:40.537Z,51997.09
2023-04-16T21:31:07.939Z,52165.22
2023-04-16T21:33:35.360Z,52425.44
2023-04-16T21:36:05.218Z,52565.56
2023-04-16T21:38:34.500Z,52227.28
2023-04-16T21:41:02.308Z,51869.00
2023-04-16T21:43:35.016Z,51887.03
2023-04-16T21:46:02.550Z,50852.47
2023-04-16T21:48:29.809Z,50040.25
2023-04-16T21:50:59.147Z,49680.22
2023-04-16T21:53:31.812Z,49708.22
2023-04-16T21:55:59.451Z,49128.22
2023-04-16T21:58:26.751Z,48822.28
2023-04-16T22:00:54.325Z,48958.25
2023-04-16T22:03:26.441Z,49612.22
2023-04-16T22:06:00.702Z,49896.22
2023-04-16T22:08:29.242Z,49614.22
2023-04-16T22:11:02.010Z,48952.25
2023-04-16T22:13:32.328Z,48828.28
2023-04-16T22:16:03.323Z,48884.28
2023-04-16T22:18:34.109Z,49320.22
2023-04-16T22:21:07.212Z,49606.22
2023-04-16T22:23:34.550Z,49388.22
2023-04-16T22:26:02.911Z,50298.28
2023-04-16T22:28:32.556Z,49938.22
2023-04-16T22:31:00.134Z,48976.25
2023-04-16T22:33:32.729Z,49064.25
2023-04-16T22:36:02.133Z,47476.84
2023-04-16T22:38:29.352Z,47972.56
2023-04-16T22:40:59.230Z,48148.50
2023-04-16T22:43:26.626Z,47081.09
2023-04-16T22:46:04.869Z,46877.25
2023-04-16T22:48:36.407Z,47159.06
2023-04-16T22:51:05.507Z,47736.69
2023-04-16T22:53:38.130Z,47744.69
2023-04-16T22:56:08.700Z,47688.72
2023-04-16T22:58:38.558Z,47950.59
2023-04-16T23:01:08.488Z,48352.41
2023-04-16T23:03:39.067Z,47392.91
2023-04-16T23:06:06.710Z,46925.22
2023-04-16T23:08:34.297Z,46249.81
2023-04-16T23:11:01.621Z,45358.81
2023-04-16T23:13:31.562Z,45121.09
2023-04-16T23:16:01.463Z,45151.06
2023-04-16T23:18:29.132Z,45406.75
2023-04-16T23:20:56.404Z,45298.88
2023-04-16T23:23:23.798Z,45211.00
2023-04-16T23:25:56.310Z,45037.22
2023-04-16T23:28:25.773Z,45570.53
2023-04-16T23:30:55.652Z,45336.84
2023-04-16T23:33:22.922Z,45314.84
2023-04-16T23:35:50.500Z,45412.75
2023-04-16T23:38:17.672Z,45656.44
2023-04-16T23:40:47.397Z,45800.28
2023-04-16T23:43:14.675Z,45824.25
2023-04-16T23:45:46.490Z,45794.28
2023-04-16T23:48:18.930Z,45966.09
2023-04-16T23:50:46.192Z,46439.63
2023-04-16T23:53:13.459Z,46343.72
2023-04-16T23:55:40.787Z,45666.44
2023-04-16T23:58:10.442Z,44971.31
